createdAt,value
2017-12-20T00:00:31.177Z,9.93
2017-12-20T00:03:00.257Z,9.94
2017-12-20T00:05:28.561Z,9.99
2017-12-20T00:07:56.887Z,10.01
2017-12-20T00:10:25.196Z,10.02
2017-12-20T00:12:53.514Z,10.00
2017-12-20T00:15:21.871Z,9.99
2017-12-20T00:17:50.183Z,10.00
2017-12-20T00:20:18.501Z,9.98
2017-12-20T00:22:46.809Z,9.98
2017-12-20T00:25:15.123Z,9.97
2017-12-20T00:27:44.198Z,9.97
2017-12-20T00:30:12.505Z,9.97
2017-12-20T00:32:41.582Z,9.99
2017-12-20T00:35:10.683Z,10.00
2017-12-20T00:37:40.610Z,9.99
2017-12-20T00:40:09.001Z,10.00
2017-12-20T00:42:38.125Z,10.02
2017-12-20T00:45:06.423Z,10.04
2017-12-20T00:47:34.732Z,10.06
2017-12-20T00:50:03.057Z,10.07
2017-12-20T00:52:31.369Z,10.09
2017-12-20T00:54:59.695Z,10.08
2017-12-20T00:57:28.776Z,10.08
2017-12-20T00:59:57.078Z,10.07
2017-12-20T01:02:26.183Z,10.06
2017-12-20T01:04:55.278Z,10.06
2017-12-20T01:07:24.351Z,10.01
2017-12-20T01:09:52.669Z,9.97
2017-12-20T01:12:20.991Z,9.94
2017-12-20T01:14:49.311Z,9.92
2017-12-20T01:17:17.618Z,9.89
2017-12-20T01:19:45.926Z,9.85
2017-12-20T01:22:14.953Z,9.84
2017-12-20T01:24:43.265Z,9.79
2017-12-20T01:27:12.358Z,9.71
2017-12-20T01:29:41.437Z,9.65
2017-12-20T01:32:09.755Z,9.60
2017-12-20T01:34:38.848Z,9.55
2017-12-20T01:37:07.167Z,9.48
2017-12-20T01:39:35.494Z,9.41
2017-12-20T01:42:27.123Z,9.37
2017-12-20T01:44:56.209Z,9.31
2017-12-20T01:47:24.531Z,9.30
2017-12-20T01:49:53.542Z,9.25
2017-12-20T01:52:21.834Z,9.23
2017-12-20T01:54:50.149Z,9.21
2017-12-20T01:57:18.466Z,9.18
2017-12-20T01:59:46.785Z,9.17
2017-12-20T02:02:15.140Z,9.12
2017-12-20T02:04:43.457Z,9.08
2017-12-20T02:07:11.778Z,9.05
2017-12-20T02:09:41.715Z,9.00
2017-12-20T02:12:10.043Z,8.95
2017-12-20T02:14:38.355Z,8.92
2017-12-20T02:17:06.713Z,8.90
2017-12-20T02:19:35.032Z,8.87
2017-12-20T02:22:04.182Z,8.84
2017-12-20T02:24:32.482Z,8.84
2017-12-20T02:27:00.783Z,8.84
2017-12-20T02:29:29.852Z,8.85
2017-12-20T02:31:58.167Z,8.89
2017-12-20T02:34:26.485Z,8.91
2017-12-20T02:36:54.860Z,8.96
2017-12-20T02:39:23.201Z,9.02
2017-12-20T02:41:51.504Z,9.07
2017-12-20T02:44:19.814Z,9.06
2017-12-20T02:46:48.112Z,9.09
2017-12-20T02:49:16.434Z,9.12
2017-12-20T02:51:45.510Z,9.17
2017-12-20T02:54:14.627Z,9.23
2017-12-20T02:56:43.711Z,9.29
2017-12-20T02:59:12.035Z,9.36
2017-12-20T03:01:40.349Z,9.41
2017-12-20T03:04:08.710Z,9.44
2017-12-20T03:06:37.019Z,9.49
2017-12-20T03:09:06.090Z,9.53
2017-12-20T03:11:34.413Z,9.56
2017-12-20T03:14:02.730Z,9.54
2017-12-20T03:16:31.824Z,9.58
2017-12-20T03:19:00.896Z,9.59
2017-12-20T03:21:29.210Z,9.61
2017-12-20T03:23:58.284Z,9.63
2017-12-20T03:26:26.623Z,9.62
2017-12-20T03:28:54.934Z,9.63
2017-12-20T03:31:23.253Z,9.65
2017-12-20T03:33:52.340Z,9.65
2017-12-20T03:36:20.660Z,9.63
2017-12-20T03:38:48.995Z,9.63
2017-12-20T03:41:17.300Z,9.62
2017-12-20T03:43:46.381Z,9.60
2017-12-20T03:46:14.699Z,9.60
2017-12-20T03:48:43.002Z,9.60
2017-12-20T03:51:11.319Z,9.58
2017-12-20T03:53:39.630Z,9.59
2017-12-20T03:56:32.051Z,9.60
2017-12-20T03:59:01.900Z,9.62
2017-12-20T04:01:30.214Z,9.63
2017-12-20T04:04:21.947Z,9.65
2017-12-20T04:06:50.258Z,9.68
2017-12-20T04:09:19.346Z,9.69
2017-12-20T04:11:48.432Z,9.69
2017-12-20T04:14:16.760Z,9.67
2017-12-20T04:16:45.073Z,9.68
2017-12-20T04:19:13.422Z,9.70
2017-12-20T04:21:41.757Z,9.71
2017-12-20T04:24:10.098Z,9.73
2017-12-20T04:27:01.858Z,9.76
2017-12-20T04:29:30.183Z,9.78
2017-12-20T04:31:58.495Z,9.82
2017-12-20T04:34:26.812Z,9.85
2017-12-20T04:36:55.886Z,9.87
2017-12-20T04:39:24.181Z,9.88
2017-12-20T04:41:52.498Z,9.87
2017-12-20T04:44:20.808Z,9.87
2017-12-20T04:46:49.146Z,9.86
2017-12-20T04:49:18.244Z,9.85
2017-12-20T04:51:47.310Z,9.81
2017-12-20T04:54:15.616Z,9.77
2017-12-20T04:56:44.684Z,9.78
2017-12-20T04:59:13.048Z,9.78
2017-12-20T05:01:41.356Z,9.78
2017-12-20T05:04:09.666Z,9.79
2017-12-20T05:06:38.760Z,9.77
2017-12-20T05:09:07.839Z,9.78
2017-12-20T05:11:36.157Z,9.77
2017-12-20T05:14:05.242Z,9.78
2017-12-20T05:16:34.328Z,9.80
2017-12-20T05:19:02.639Z,9.80
2017-12-20T05:21:30.983Z,9.83
2017-12-20T05:23:59.315Z,9.85
2017-12-20T05:26:28.501Z,9.88
2017-12-20T05:28:56.860Z,9.91
2017-12-20T05:31:25.178Z,9.90
2017-12-20T05:33:53.519Z,9.90
2017-12-20T05:36:21.840Z,9.91
2017-12-20T05:38:50.152Z,9.93
2017-12-20T05:41:18.478Z,9.94
2017-12-20T05:43:47.568Z,9.94
2017-12-20T05:46:15.892Z,9.92
2017-12-20T05:48:44.209Z,9.94
2017-12-20T05:51:12.538Z,9.96
2017-12-20T05:53:40.866Z,9.97
2017-12-20T05:56:09.208Z,9.95
2017-12-20T05:58:37.520Z,9.96
2017-12-20T06:01:05.832Z,9.96
2017-12-20T06:03:34.135Z,9.97
2017-12-20T06:06:03.211Z,10.00
2017-12-20T06:08:31.519Z,10.03
2017-12-20T06:11:00.627Z,10.06
2017-12-20T06:13:29.721Z,10.06
2017-12-20T06:15:58.826Z,10.07
2017-12-20T06:18:27.911Z,10.09
2017-12-20T06:20:56.995Z,10.08
2017-12-20T06:23:25.315Z,10.09
2017-12-20T06:25:53.670Z,10.05
2017-12-20T06:28:22.752Z,10.04
2017-12-20T06:30:51.074Z,10.00
2017-12-20T06:33:19.405Z,9.96
2017-12-20T06:35:47.717Z,9.95
2017-12-20T06:38:16.030Z,9.95
2017-12-20T06:40:44.348Z,9.96
2017-12-20T06:43:12.654Z,9.98
2017-12-20T06:45:40.972Z,9.98
2017-12-20T06:48:09.278Z,9.96
2017-12-20T06:50:37.589Z,9.92
2017-12-20T06:53:05.895Z,9.89
2017-12-20T06:55:34.962Z,9.88
2017-12-20T06:58:03.275Z,9.88
2017-12-20T07:00:32.353Z,9.87
2017-12-20T07:03:00.661Z,9.86
2017-12-20T07:05:29.737Z,9.87
2017-12-20T07:07:58.086Z,9.89
2017-12-20T07:10:26.391Z,9.88
2017-12-20T07:12:54.697Z,9.90
2017-12-20T07:15:23.653Z,9.89
2017-12-20T07:17:52.719Z,9.90
2017-12-20T07:20:21.027Z,9.90
2017-12-20T07:22:49.354Z,9.94
2017-12-20T07:25:18.441Z,9.97
2017-12-20T07:27:46.775Z,9.99
2017-12-20T07:30:15.104Z,10.01
2017-12-20T07:32:44.207Z,10.03
2017-12-20T07:35:12.518Z,10.05
2017-12-20T07:37:40.843Z,10.07
2017-12-20T07:40:09.168Z,10.10
2017-12-20T07:42:38.257Z,10.10
2017-12-20T07:45:06.573Z,10.12
2017-12-20T07:47:34.882Z,10.14
2017-12-20T07:50:03.221Z,10.18
2017-12-20T07:52:31.551Z,10.23
2017-12-20T07:55:00.778Z,10.28
2017-12-20T07:57:29.089Z,10.31
2017-12-20T07:59:58.146Z,10.34
2017-12-20T08:02:26.471Z,10.33
2017-12-20T08:04:55.586Z,10.32
2017-12-20T08:07:23.887Z,10.33
2017-12-20T08:09:52.201Z,10.33
2017-12-20T08:12:20.504Z,10.36
2017-12-20T08:14:49.608Z,10.39
2017-12-20T08:17:18.679Z,10.41
2017-12-20T08:19:46.974Z,10.43
2017-12-20T08:22:16.059Z,10.46
2017-12-20T08:24:44.373Z,10.46
2017-12-20T08:27:13.491Z,10.50
2017-12-20T08:29:41.843Z,10.52
2017-12-20T08:32:10.920Z,10.55
2017-12-20T08:34:39.236Z,10.55
2017-12-20T08:37:08.312Z,10.55
2017-12-20T08:39:36.663Z,10.56
2017-12-20T08:42:04.996Z,10.57
2017-12-20T08:44:33.322Z,10.54
2017-12-20T08:47:01.659Z,10.52
2017-12-20T08:49:30.772Z,10.53
2017-12-20T08:51:59.095Z,10.53
2017-12-20T08:54:27.429Z,10.54
2017-12-20T08:56:56.546Z,10.56
2017-12-20T08:59:24.876Z,10.61
2017-12-20T09:01:53.215Z,10.61
2017-12-20T09:04:21.537Z,10.61
2017-12-20T09:06:49.853Z,10.59
2017-12-20T09:09:18.944Z,10.60
2017-12-20T09:11:48.025Z,10.65
2017-12-20T09:14:16.347Z,10.71
2017-12-20T09:16:44.681Z,10.77
2017-12-20T09:19:12.989Z,10.80
2017-12-20T09:21:42.051Z,10.81
2017-12-20T09:24:10.361Z,10.80
2017-12-20T09:26:38.668Z,10.81
2017-12-20T09:29:07.027Z,10.84
2017-12-20T09:31:35.327Z,10.89
2017-12-20T09:34:04.401Z,10.93
2017-12-20T09:36:32.743Z,11.02
2017-12-20T09:39:01.044Z,11.09
2017-12-20T09:41:29.497Z,11.19
2017-12-20T09:43:57.839Z,11.27
2017-12-20T09:46:26.958Z,11.31
2017-12-20T09:48:55.295Z,11.31
2017-12-20T09:51:23.619Z,11.35
2017-12-20T09:53:52.788Z,11.38
2017-12-20T09:56:21.087Z,11.38
2017-12-20T09:58:50.177Z,11.39
2017-12-20T10:01:18.500Z,11.42
2017-12-20T10:03:46.838Z,11.51
2017-12-20T10:06:15.157Z,11.62
2017-12-20T10:08:43.545Z,11.67
2017-12-20T10:11:11.878Z,11.67
2017-12-20T10:13:40.201Z,11.70
2017-12-20T10:16:08.513Z,11.70
2017-12-20T10:18:36.891Z,11.68
2017-12-20T10:21:05.203Z,11.68
2017-12-20T10:23:33.531Z,11.66
2017-12-20T10:26:02.028Z,11.69
2017-12-20T10:28:30.352Z,11.74
2017-12-20T10:30:58.678Z,11.75
2017-12-20T10:33:26.995Z,11.76
2017-12-20T10:35:55.313Z,11.78
2017-12-20T10:38:23.630Z,11.79
2017-12-20T10:40:52.130Z,11.78
2017-12-20T10:43:20.509Z,11.78
2017-12-20T10:45:48.858Z,11.82
2017-12-20T10:48:17.988Z,11.84
2017-12-20T10:50:46.370Z,11.86
2017-12-20T10:53:14.673Z,11.87
2017-12-20T10:55:42.994Z,11.95
2017-12-20T10:58:11.308Z,12.02
2017-12-20T11:00:39.608Z,12.02
2017-12-20T11:03:07.919Z,12.01
2017-12-20T11:05:36.249Z,12.00
2017-12-20T11:08:04.640Z,12.06
2017-12-20T11:10:33.009Z,12.11
2017-12-20T11:13:01.313Z,12.10
2017-12-20T11:15:29.681Z,12.09
2017-12-20T11:17:58.048Z,12.11
2017-12-20T11:20:27.139Z,12.11
2017-12-20T11:22:56.221Z,12.13
2017-12-20T11:25:24.550Z,12.14
2017-12-20T11:27:52.858Z,12.19
2017-12-20T11:30:21.186Z,12.20
2017-12-20T11:32:50.274Z,12.20
2017-12-20T11:35:18.637Z,12.20
2017-12-20T11:37:46.962Z,12.19
2017-12-20T11:40:15.280Z,12.17
2017-12-20T11:42:44.404Z,12.15
2017-12-20T11:45:12.740Z,12.13
2017-12-20T11:47:41.073Z,12.16
2017-12-20T11:50:09.390Z,12.15
2017-12-20T11:52:38.504Z,12.15
2017-12-20T11:55:06.858Z,12.11
2017-12-20T11:57:35.949Z,12.07
2017-12-20T12:00:04.265Z,12.05
2017-12-20T12:02:32.599Z,12.01
2017-12-20T12:05:00.917Z,11.97
2017-12-20T12:07:29.257Z,11.95
2017-12-20T12:09:57.573Z,11.93
2017-12-20T12:12:26.672Z,11.90
2017-12-20T12:14:55.770Z,11.89
2017-12-20T12:17:24.864Z,11.92
2017-12-20T12:19:53.937Z,11.94
2017-12-20T12:22:22.277Z,11.97
2017-12-20T12:24:50.606Z,11.96
2017-12-20T12:27:18.941Z,11.95
2017-12-20T12:29:47.276Z,11.96
2017-12-20T12:32:15.648Z,11.97
2017-12-20T12:34:43.966Z,12.00
2017-12-20T12:37:13.087Z,12.04
2017-12-20T12:39:41.830Z,11.98
2017-12-20T12:42:10.153Z,11.97
2017-12-20T12:44:38.486Z,11.97
2017-12-20T12:47:06.795Z,12.00
2017-12-20T12:49:35.878Z,12.00
2017-12-20T12:52:04.201Z,12.00
2017-12-20T12:54:32.596Z,12.00
2017-12-20T12:57:00.926Z,11.98
2017-12-20T12:59:31.614Z,11.98
2017-12-20T13:01:59.964Z,12.03
2017-12-20T13:04:29.064Z,12.08
2017-12-20T13:06:58.741Z,12.09
2017-12-20T13:09:27.070Z,12.08
2017-12-20T13:11:55.496Z,12.11
2017-12-20T13:14:23.846Z,12.10
2017-12-20T13:16:52.182Z,12.10
2017-12-20T13:19:20.506Z,12.19
2017-12-20T13:21:48.956Z,12.26
2017-12-20T13:24:17.288Z,12.32
2017-12-20T13:26:45.632Z,12.37
2017-12-20T13:29:14.764Z,12.40
2017-12-20T13:31:43.102Z,12.40
2017-12-20T13:34:11.433Z,12.38
2017-12-20T13:36:39.757Z,12.35
2017-12-20T13:39:08.100Z,12.34
2017-12-20T13:41:36.450Z,12.30
2017-12-20T13:44:05.518Z,12.27
2017-12-20T13:46:33.825Z,12.26
2017-12-20T13:49:02.938Z,12.21
2017-12-20T13:51:31.278Z,12.18
2017-12-20T13:53:59.603Z,12.14
2017-12-20T13:56:28.710Z,12.14
2017-12-20T13:58:57.038Z,12.15
2017-12-20T14:01:25.453Z,12.15
2017-12-20T14:03:54.554Z,12.15
2017-12-20T14:06:23.660Z,12.13
2017-12-20T14:08:52.048Z,12.08
2017-12-20T14:11:20.380Z,12.06
2017-12-20T14:13:48.811Z,12.03
2017-12-20T14:16:17.132Z,12.00
2017-12-20T14:18:45.478Z,11.97
2017-12-20T14:21:13.878Z,11.97
2017-12-20T14:23:42.211Z,11.98
2017-12-20T14:26:10.535Z,12.01
2017-12-20T14:28:38.869Z,12.05
2017-12-20T14:31:07.237Z,12.07
2017-12-20T14:33:35.556Z,12.05
2017-12-20T14:36:03.870Z,12.05
2017-12-20T14:38:32.195Z,12.05
2017-12-20T14:41:00.656Z,12.01
2017-12-20T14:43:28.978Z,11.94
2017-12-20T14:45:58.098Z,11.93
2017-12-20T14:48:27.220Z,11.88
2017-12-20T14:50:55.712Z,11.84
2017-12-20T14:53:24.015Z,11.79
2017-12-20T14:55:52.372Z,11.74
2017-12-20T14:58:20.704Z,11.68
2017-12-20T15:00:49.016Z,11.66
2017-12-20T15:03:18.096Z,11.63
2017-12-20T15:05:47.182Z,11.65
2017-12-20T15:08:15.514Z,11.62
2017-12-20T15:10:43.815Z,11.59
2017-12-20T15:13:12.162Z,11.56
2017-12-20T15:15:41.263Z,11.56
2017-12-20T15:18:09.592Z,11.53
2017-12-20T15:20:37.912Z,11.48
2017-12-20T15:23:06.998Z,11.46
2017-12-20T15:25:35.326Z,11.44
2017-12-20T15:28:04.132Z,11.43
2017-12-20T15:30:32.452Z,11.42
2017-12-20T15:33:00.874Z,11.37
2017-12-20T15:35:29.206Z,11.37
2017-12-20T15:37:57.528Z,11.36
2017-12-20T15:40:25.875Z,11.35
2017-12-20T15:42:54.211Z,11.35
2017-12-20T15:45:22.545Z,11.35
2017-12-20T15:47:50.858Z,11.31
2017-12-20T15:50:19.211Z,11.29
2017-12-20T15:52:47.548Z,11.26
2017-12-20T15:55:15.863Z,11.23
2017-12-20T15:57:44.196Z,11.19
2017-12-20T16:00:12.491Z,11.20
2017-12-20T16:02:40.826Z,11.20
2017-12-20T16:05:09.921Z,11.17
2017-12-20T16:07:38.259Z,11.18
2017-12-20T16:10:07.393Z,11.18
2017-12-20T16:12:35.732Z,11.17
2017-12-20T16:15:04.063Z,11.16
2017-12-20T16:17:32.375Z,11.14
2017-12-20T16:20:00.691Z,11.11
2017-12-20T16:22:28.997Z,11.09
2017-12-20T16:24:57.337Z,11.07
2017-12-20T16:27:25.678Z,11.07
2017-12-20T16:29:54.104Z,11.07
2017-12-20T16:32:22.474Z,11.04
2017-12-20T16:34:50.815Z,11.03
2017-12-20T16:37:19.149Z,11.06
2017-12-20T16:39:47.473Z,11.05
2017-12-20T16:42:15.792Z,11.04
2017-12-20T16:44:44.139Z,11.01
2017-12-20T16:47:12.501Z,11.00
2017-12-20T16:49:40.809Z,10.99
2017-12-20T16:52:09.143Z,10.98
2017-12-20T16:54:37.459Z,10.97
2017-12-20T16:57:05.784Z,10.98
2017-12-20T16:59:34.882Z,10.99
2017-12-20T17:02:03.291Z,10.98
2017-12-20T17:04:31.680Z,10.96
2017-12-20T17:07:00.002Z,10.97
2017-12-20T17:09:28.339Z,10.99
2017-12-20T17:11:56.652Z,10.99
2017-12-20T17:14:25.001Z,10.98
2017-12-20T17:16:53.300Z,10.98
2017-12-20T17:19:21.726Z,10.98
2017-12-20T17:21:50.047Z,10.97
2017-12-20T17:24:18.443Z,10.97
2017-12-20T17:26:46.798Z,10.97
2017-12-20T17:29:15.131Z,10.97
2017-12-20T17:31:43.439Z,10.95
2017-12-20T17:34:11.759Z,10.92
2017-12-20T17:36:40.143Z,10.91
2017-12-20T17:39:08.441Z,10.92
2017-12-20T17:41:36.765Z,10.90
2017-12-20T17:44:05.855Z,10.86
2017-12-20T17:46:34.183Z,10.84
2017-12-20T17:49:02.484Z,10.84
2017-12-20T17:51:30.807Z,10.85
2017-12-20T17:53:59.116Z,10.88
2017-12-20T17:56:28.194Z,10.86
2017-12-20T17:58:56.520Z,10.87
2017-12-20T18:01:24.846Z,10.88
2017-12-20T18:03:53.167Z,10.88
2017-12-20T18:06:21.472Z,10.89
2017-12-20T18:08:49.902Z,10.89
2017-12-20T18:11:18.220Z,10.86
2017-12-20T18:13:46.544Z,10.84
2017-12-20T18:16:14.887Z,10.83
2017-12-20T18:18:43.209Z,10.82
2017-12-20T18:21:11.531Z,10.82
2017-12-20T18:23:40.684Z,10.84
2017-12-20T18:26:09.008Z,10.84
2017-12-20T18:28:38.112Z,10.83
2017-12-20T18:31:07.221Z,10.80
2017-12-20T18:33:35.576Z,10.78
2017-12-20T18:36:03.915Z,10.76
2017-12-20T18:38:32.225Z,10.77
2017-12-20T18:41:00.560Z,10.82
2017-12-20T18:43:29.102Z,10.83
2017-12-20T18:45:58.199Z,10.84
2017-12-20T18:48:26.526Z,10.85
2017-12-20T18:50:54.853Z,10.85
2017-12-20T18:53:23.261Z,10.83
2017-12-20T18:55:52.937Z,10.84
2017-12-20T18:58:21.239Z,10.85
2017-12-20T19:00:49.629Z,10.87
2017-12-20T19:03:17.943Z,10.88
2017-12-20T19:05:46.253Z,10.86
2017-12-20T19:08:14.574Z,10.83
2017-12-20T19:10:42.928Z,10.83
2017-12-20T19:13:11.294Z,10.84
2017-12-20T19:15:39.665Z,10.85
2017-12-20T19:18:08.107Z,10.82
2017-12-20T19:20:37.402Z,10.81
2017-12-20T19:23:06.522Z,10.82
2017-12-20T19:25:34.895Z,10.84
2017-12-20T19:28:03.219Z,10.86
2017-12-20T19:30:31.560Z,10.85
2017-12-20T19:33:00.663Z,10.85
2017-12-20T19:35:28.964Z,10.85
2017-12-20T19:37:57.277Z,10.87
2017-12-20T19:40:25.669Z,10.86
2017-12-20T19:42:53.990Z,10.86
2017-12-20T19:45:22.372Z,10.86
2017-12-20T19:47:50.688Z,10.85
2017-12-20T19:50:18.998Z,10.83
2017-12-20T19:52:47.306Z,10.82
2017-12-20T19:55:15.630Z,10.81
2017-12-20T19:57:43.967Z,10.76
2017-12-20T20:00:12.303Z,10.75
2017-12-20T20:02:40.611Z,10.74
2017-12-20T20:05:08.953Z,10.72
2017-12-20T20:07:37.271Z,10.71
2017-12-20T20:10:05.598Z,10.72
2017-12-20T20:12:34.779Z,10.75
2017-12-20T20:15:03.137Z,10.77
2017-12-20T20:17:31.480Z,10.82
2017-12-20T20:19:59.794Z,10.85
2017-12-20T20:22:28.215Z,10.84
2017-12-20T20:24:57.326Z,10.83
2017-12-20T20:27:26.454Z,10.82
2017-12-20T20:29:54.806Z,10.81
2017-12-20T20:32:23.905Z,10.82
2017-12-20T20:34:52.250Z,10.81
2017-12-20T20:37:20.571Z,10.81
2017-12-20T20:39:49.646Z,10.84
2017-12-20T20:42:18.079Z,10.87
2017-12-20T20:44:46.544Z,10.87
2017-12-20T20:47:14.869Z,10.87
2017-12-20T20:49:43.171Z,10.86
2017-12-20T20:52:11.489Z,10.83
2017-12-20T20:54:40.594Z,10.84
2017-12-20T20:57:09.801Z,10.86
2017-12-20T20:59:38.120Z,10.85
2017-12-20T21:02:06.441Z,10.83
2017-12-20T21:04:34.830Z,10.84
2017-12-20T21:07:03.947Z,10.86
2017-12-20T21:09:32.281Z,10.81
2017-12-20T21:12:00.595Z,10.78
2017-12-20T21:14:29.678Z,10.79
2017-12-20T21:16:58.215Z,10.77
2017-12-20T21:19:26.552Z,10.71
2017-12-20T21:21:54.861Z,10.69
2017-12-20T21:24:23.970Z,10.68
2017-12-20T21:26:52.286Z,10.71
2017-12-20T21:29:21.400Z,10.73
2017-12-20T21:31:49.718Z,10.73
2017-12-20T21:34:18.791Z,10.71
2017-12-20T21:36:47.321Z,10.69
2017-12-20T21:39:15.647Z,10.69
2017-12-20T21:41:44.061Z,10.70
2017-12-20T21:44:13.148Z,10.72
2017-12-20T21:46:42.240Z,10.74
2017-12-20T21:49:10.555Z,10.73
2017-12-20T21:51:39.728Z,10.71
2017-12-20T21:54:08.044Z,10.73
2017-12-20T21:56:36.356Z,10.75
2017-12-20T21:59:04.665Z,10.75
2017-12-20T22:01:33.058Z,10.74
2017-12-20T22:04:01.403Z,10.74
2017-12-20T22:06:29.770Z,10.74
2017-12-20T22:08:58.089Z,10.71
2017-12-20T22:11:26.398Z,10.69
2017-12-20T22:13:55.478Z,10.70
2017-12-20T22:16:23.779Z,10.68
2017-12-20T22:18:52.884Z,10.66
2017-12-20T22:21:22.818Z,10.65
2017-12-20T22:23:52.362Z,10.62
2017-12-20T22:26:20.760Z,10.60
2017-12-20T22:28:49.070Z,10.54
2017-12-20T22:31:17.464Z,10.52
2017-12-20T22:33:46.562Z,10.50
2017-12-20T22:36:15.682Z,10.49
2017-12-20T22:38:43.985Z,10.46
2017-12-20T22:41:12.294Z,10.46
2017-12-20T22:43:40.644Z,10.45
2017-12-20T22:46:08.954Z,10.47
2017-12-20T22:48:37.262Z,10.47
2017-12-20T22:51:05.565Z,10.47
2017-12-20T22:53:33.866Z,10.48
2017-12-20T22:56:02.184Z,10.49
2017-12-20T22:58:30.488Z,10.51
2017-12-20T23:00:59.557Z,10.53
2017-12-20T23:03:27.887Z,10.53
2017-12-20T23:05:56.940Z,10.54
2017-12-20T23:08:25.255Z,10.55
2017-12-20T23:10:54.328Z,10.54
2017-12-20T23:13:22.644Z,10.50
2017-12-20T23:15:51.760Z,10.46
2017-12-20T23:18:20.065Z,10.43
2017-12-20T23:20:49.142Z,10.39
2017-12-20T23:23:17.464Z,10.39
2017-12-20T23:25:45.770Z,10.38
2017-12-20T23:28:14.088Z,10.38
2017-12-20T23:30:42.394Z,10.37
2017-12-20T23:33:10.710Z,10.36
2017-12-20T23:35:39.018Z,10.35
2017-12-20T23:38:08.114Z,10.37
2017-12-20T23:40:37.188Z,10.35
2017-12-20T23:43:05.491Z,10.36
2017-12-20T23:45:34.557Z,10.35
2017-12-20T23:48:02.868Z,10.33
2017-12-20T23:50:31.953Z,10.29
2017-12-20T23:53:00.264Z,10.30
2017-12-20T23:55:28.564Z,10.30
2017-12-20T23:57:56.869Z,10.28
